Time;durP1;ratioP1;P1;durP2;ratioP2;P2;SDS_P1;SDS_P2;PMS_P1;PMS_P2;Temp;Humidity;BMP_temperature;BMP_pressure;BME280_temperature;BME280_humidity;BME280_pressure;Samples;Min_cycle;Max_cycle;Signal;HPM_P1;HPM_P2
2022/11/27 00:01:37;;;;;;;9.35;8.73;;;;;;;;;;4993919;28;20037;-60
2022/11/27 00:04:03;;;;;;;9.50;8.90;;;;;;;;;;4992880;28;20042;-60
2022/11/27 00:06:30;;;;;;;10.23;9.50;;;;;;;;;;4994992;28;20038;-60
2022/11/27 00:08:57;;;;;;;9.20;8.50;;;;;;;;;;4993784;28;20042;-60
2022/11/27 00:11:23;;;;;;;9.07;8.48;;;;;;;;;;4993809;28;20177;-60
2022/11/27 00:13:50;;;;;;;8.80;8.20;;;;;;;;;;4993968;28;20084;-60
2022/11/27 00:16:16;;;;;;;8.27;7.68;;;;;;;;;;4994181;28;20093;-60
2022/11/27 00:18:42;;;;;;;8.45;7.85;;;;;;;;;;4992806;28;20514;-60
2022/11/27 00:21:13;;;;;;;8.30;7.70;;;;;;;;;;4992908;28;20034;-60
2022/11/27 00:23:38;;;;;;;8.65;8.05;;;;;;;;;;4995244;28;20026;-60
2022/11/27 00:26:05;;;;;;;8.55;7.95;;;;;;;;;;4993307;28;20353;-60
2022/11/27 00:28:31;;;;;;;7.65;7.15;;;;;;;;;;4992063;28;20033;-60
2022/11/27 00:31:04;;;;;;;8.88;7.97;;;;;;;;;;4991651;28;20045;-60
2022/11/27 00:33:30;;;;;;;9.07;7.47;;;;;;;;;;5000105;28;20041;-60
2022/11/27 00:35:55;;;;;;;9.60;8.68;;;;;;;;;;4994689;28;20261;-60
2022/11/27 00:38:21;;;;;;;8.02;7.43;;;;;;;;;;4992323;28;20018;-60
2022/11/27 00:40:46;;;;;;;9.15;8.45;;;;;;;;;;4991356;28;20030;-60
2022/11/27 00:43:12;;;;;;;9.00;8.15;;;;;;;;;;4990955;28;20093;-60
2022/11/27 00:45:37;;;;;;;9.20;8.50;;;;;;;;;;4991120;28;20157;-60
2022/11/27 00:48:03;;;;;;;9.07;8.30;;;;;;;;;;4992930;28;20409;-60
2022/11/27 00:50:30;;;;;;;8.40;7.88;;;;;;;;;;4989236;28;20318;-60
2022/11/27 00:52:57;;;;;;;9.63;8.93;;;;;;;;;;4995425;28;20042;-61
2022/11/27 00:55:23;;;;;;;8.93;8.27;;;;;;;;;;4993195;28;20412;-60
2022/11/27 00:57:48;;;;;;;8.82;8.20;;;;;;;;;;4990427;28;20029;-61
2022/11/27 01:00:14;;;;;;;9.02;8.38;;;;;;;;;;4992772;28;20038;-60
2022/11/27 01:02:39;;;;;;;8.07;7.57;;;;;;;;;;4991520;28;20111;-60
2022/11/27 01:05:05;;;;;;;8.02;7.43;;;;;;;;;;4991891;28;20018;-61
2022/11/27 01:07:31;;;;;;;9.18;8.57;;;;;;;;;;4994599;28;20784;-60
2022/11/27 01:09:56;;;;;;;8.15;7.55;;;;;;;;;;4993739;28;20532;-60
2022/11/27 01:12:21;;;;;;;7.95;7.45;;;;;;;;;;4992275;28;20021;-60
2022/11/27 01:14:47;;;;;;;9.57;8.88;;;;;;;;;;4992011;28;20063;-60
2022/11/27 01:17:12;;;;;;;9.02;8.38;;;;;;;;;;4994190;28;20531;-60
2022/11/27 01:19:37;;;;;;;9.13;8.50;;;;;;;;;;4992673;28;20040;-60
2022/11/27 01:22:03;;;;;;;8.65;8.05;;;;;;;;;;4991363;28;20176;-60
2022/11/27 01:24:28;;;;;;;8.82;8.18;;;;;;;;;;4992265;28;20029;-60
2022/11/27 01:26:53;;;;;;;9.57;8.73;;;;;;;;;;4993984;28;20045;-60
2022/11/27 01:29:19;;;;;;;8.23;7.72;;;;;;;;;;4992400;28;20033;-60
2022/11/27 01:31:44;;;;;;;8.57;7.97;;;;;;;;;;4990791;28;20045;-61
2022/11/27 01:34:14;;;;;;;8.50;7.90;;;;;;;;;;4989877;28;20026;-60
2022/11/27 01:36:39;;;;;;;8.93;8.32;;;;;;;;;;4994632;28;20029;-60
2022/11/27 01:39:05;;;;;;;8.30;7.60;;;;;;;;;;4991454;28;20466;-60
2022/11/27 01:41:38;;;;;;;9.02;8.43;;;;;;;;;;4991173;28;20132;-60
2022/11/27 01:44:22;;;;;;;9.02;8.43;;;;;;;;;;4991634;28;20042;-60
2022/11/27 01:47:00;;;;;;;8.45;7.85;;;;;;;;;;4990886;28;20040;-60
2022/11/27 01:49:50;;;;;;;10.00;9.20;;;;;;;;;;4993134;28;20038;-60
2022/11/27 01:52:34;;;;;;;9.10;8.50;;;;;;;;;;4992786;28;20254;-60
2022/11/27 01:55:09;;;;;;;8.85;8.25;;;;;;;;;;4989082;28;20129;-60
2022/11/27 01:58:03;;;;;;;9.48;8.88;;;;;;;;;;4990648;28;20034;-60
2022/11/27 02:00:28;;;;;;;9.60;8.82;;;;;;;;;;4984536;28;20042;-60
2022/11/27 02:02:54;;;;;;;9.40;8.70;;;;;;;;;;4990548;28;20372;-60
2022/11/27 02:05:25;;;;;;;8.82;8.23;;;;;;;;;;4993612;28;20140;-60
2022/11/27 02:07:51;;;;;;;9.18;8.57;;;;;;;;;;4992529;28;20037;-60
2022/11/27 02:10:17;;;;;;;9.35;8.75;;;;;;;;;;4988615;28;20128;-61
2022/11/27 02:12:56;;;;;;;9.05;8.35;;;;;;;;;;4989742;28;20475;-61
2022/11/27 02:15:48;;;;;;;9.13;8.43;;;;;;;;;;4991399;28;20507;-60
2022/11/27 02:18:25;;;;;;;9.77;8.50;;;;;;;;;;4992169;28;20049;-60
2022/11/27 02:20:56;;;;;;;9.35;8.70;;;;;;;;;;4990544;28;20034;-61
2022/11/27 02:23:40;;;;;;;9.07;8.48;;;;;;;;;;4992439;28;20080;-61
2022/11/27 02:26:12;;;;;;;9.50;8.88;;;;;;;;;;4992812;28;20069;-61
2022/11/27 02:28:59;;;;;;;10.25;9.55;;;;;;;;;;4993667;28;20038;-61
2022/11/27 02:31:27;;;;;;;9.10;8.48;;;;;;;;;;4989696;28;20120;-60
2022/11/27 02:33:58;;;;;;;11.85;9.25;;;;;;;;;;4992140;28;20072;-60
2022/11/27 02:36:29;;;;;;;9.60;8.97;;;;;;;;;;4989923;28;20034;-60
2022/11/27 02:39:09;;;;;;;10.77;10.07;;;;;;;;;;4989076;28;20266;-60
2022/11/27 02:41:53;;;;;;;9.63;9.02;;;;;;;;;;4987065;28;20034;-61
2022/11/27 02:44:21;;;;;;;9.38;8.70;;;;;;;;;;4992211;28;20030;-60
2022/11/27 02:46:47;;;;;;;10.88;9.98;;;;;;;;;;4987707;28;20042;-60
2022/11/27 02:49:16;;;;;;;10.40;9.70;;;;;;;;;;4989936;28;20030;-60
2022/11/27 02:51:47;;;;;;;10.55;9.75;;;;;;;;;;4988976;28;20030;-60
2022/11/27 02:54:18;;;;;;;8.75;8.15;;;;;;;;;;4990065;28;20040;-60
2022/11/27 02:56:47;;;;;;;9.18;8.57;;;;;;;;;;4987857;28;20104;-60
2022/11/27 02:59:14;;;;;;;9.05;8.45;;;;;;;;;;4992419;28;20221;-60
2022/11/27 03:01:44;;;;;;;10.20;9.27;;;;;;;;;;4986758;28;20030;-60
2022/11/27 03:04:15;;;;;;;8.73;8.13;;;;;;;;;;4989351;28;20048;-60
2022/11/27 03:06:55;;;;;;;8.93;8.27;;;;;;;;;;4990954;28;20129;-60
2022/11/27 03:09:33;;;;;;;9.00;8.40;;;;;;;;;;4991289;28;20050;-60
2022/11/27 03:11:59;;;;;;;10.25;9.45;;;;;;;;;;4987798;28;20030;-60
2022/11/27 03:14:25;;;;;;;9.40;8.70;;;;;;;;;;4989998;28;20149;-60
2022/11/27 03:17:06;;;;;;;10.57;9.85;;;;;;;;;;4992916;28;20121;-60
2022/11/27 03:19:46;;;;;;;8.35;7.75;;;;;;;;;;4996584;28;20375;-60
2022/11/27 03:22:11;;;;;;;8.68;8.10;;;;;;;;;;4996101;28;20033;-60
2022/11/27 03:24:37;;;;;;;8.63;8.02;;;;;;;;;;4991547;28;20030;-60
2022/11/27 03:27:04;;;;;;;9.13;8.32;;;;;;;;;;4993016;28;20035;-60
2022/11/27 03:29:50;;;;;;;18.95;8.43;;;;;;;;;;4995028;28;20038;-60
2022/11/27 03:32:16;;;;;;;8.02;7.53;;;;;;;;;;4994075;28;20056;-60
2022/11/27 03:34:42;;;;;;;7.97;7.47;;;;;;;;;;4993209;28;20030;-60
2022/11/27 03:37:08;;;;;;;10.40;9.50;;;;;;;;;;4994572;28;20140;-60
2022/11/27 03:39:33;;;;;;;8.63;8.02;;;;;;;;;;4997235;28;20113;-60
2022/11/27 03:42:21;;;;;;;9.00;8.40;;;;;;;;;;4993379;28;20339;-61
2022/11/27 03:45:11;;;;;;;9.38;8.77;;;;;;;;;;4994811;28;20460;-60
2022/11/27 03:47:44;;;;;;;9.48;8.82;;;;;;;;;;4992813;28;20030;-60
2022/11/27 03:50:50;;;;;;;9.23;8.48;;;;;;;;;;4992819;28;20113;-60
2022/11/27 03:53:50;;;;;;;7.55;7.05;;;;;;;;;;4995192;28;20048;-61
2022/11/27 03:56:35;;;;;;;8.25;7.65;;;;;;;;;;4997102;28;20034;-60
2022/11/27 03:59:13;;;;;;;8.60;7.97;;;;;;;;;;4995426;28;20041;-60
2022/11/27 04:01:39;;;;;;;7.10;6.60;;;;;;;;;;4993525;28;20445;-60
2022/11/27 04:04:05;;;;;;;8.20;7.63;;;;;;;;;;4994039;28;20346;-60
2022/11/27 04:06:30;;;;;;;7.78;7.28;;;;;;;;;;4993203;28;20030;-60
2022/11/27 04:08:56;;;;;;;9.55;8.85;;;;;;;;;;4993691;28;20512;-60
2022/11/27 04:11:21;;;;;;;8.68;8.07;;;;;;;;;;4994859;28;20454;-60
2022/11/27 04:13:47;;;;;;;7.63;7.13;;;;;;;;;;4992967;28;20073;-60
2022/11/27 04:16:12;;;;;;;9.23;8.48;;;;;;;;;;4993292;28;20088;-60
2022/11/27 04:18:37;;;;;;;7.53;7.03;;;;;;;;;;4990625;28;20629;-60
2022/11/27 04:21:03;;;;;;;7.95;7.45;;;;;;;;;;4993690;28;20030;-60
2022/11/27 04:23:28;;;;;;;8.80;8.20;;;;;;;;;;4992588;28;20076;-60
2022/11/27 04:25:54;;;;;;;9.15;8.55;;;;;;;;;;4991688;28;20117;-60
2022/11/27 04:28:19;;;;;;;8.98;8.38;;;;;;;;;;4991120;28;20352;-60
2022/11/27 04:30:50;;;;;;;7.72;7.22;;;;;;;;;;4993524;28;20042;-60
2022/11/27 04:33:15;;;;;;;8.73;8.13;;;;;;;;;;4990723;28;20038;-60
2022/11/27 04:35:40;;;;;;;8.93;8.32;;;;;;;;;;4995029;28;20645;-60
2022/11/27 04:38:06;;;;;;;8.73;8.13;;;;;;;;;;4993167;28;20061;-60
2022/11/27 04:40:31;;;;;;;8.30;7.70;;;;;;;;;;4992433;28;20040;-60
2022/11/27 04:42:56;;;;;;;8.43;7.82;;;;;;;;;;4994955;28;20538;-60
2022/11/27 04:45:22;;;;;;;7.72;7.22;;;;;;;;;;4992798;28;20309;-60
2022/11/27 04:47:47;;;;;;;7.80;7.28;;;;;;;;;;4993539;28;20411;-60
2022/11/27 04:50:12;;;;;;;7.25;6.75;;;;;;;;;;4991811;28;20472;-60
2022/11/27 04:52:38;;;;;;;8.77;7.97;;;;;;;;;;4992135;28;20030;-60
2022/11/27 04:55:03;;;;;;;8.18;7.57;;;;;;;;;;4993065;28;20035;-60
2022/11/27 04:57:29;;;;;;;7.55;6.85;;;;;;;;;;4994986;28;20117;-60
2022/11/27 04:59:54;;;;;;;7.18;6.68;;;;;;;;;;4995699;28;20130;-60
2022/11/27 05:02:20;;;;;;;6.78;6.28;;;;;;;;;;4992403;28;20056;-60
2022/11/27 05:04:45;;;;;;;6.20;5.80;;;;;;;;;;4992154;28;20038;-60
2022/11/27 05:07:10;;;;;;;8.23;7.63;;;;;;;;;;4992383;28;20033;-60
2022/11/27 05:09:36;;;;;;;6.65;6.15;;;;;;;;;;4995965;28;20072;-60
2022/11/27 05:12:01;;;;;;;7.05;6.55;;;;;;;;;;4990405;28;20112;-60
2022/11/27 05:14:28;;;;;;;7.65;7.15;;;;;;;;;;4999008;28;20022;-60
2022/11/27 05:16:56;;;;;;;6.80;6.30;;;;;;;;;;4993348;28;20511;-60
2022/11/27 05:19:23;;;;;;;6.88;6.38;;;;;;;;;;4992869;28;20299;-60
2022/11/27 05:21:50;;;;;;;7.75;7.15;;;;;;;;;;4988641;28;20096;-60
2022/11/27 05:24:16;;;;;;;7.32;6.82;;;;;;;;;;4990497;28;20026;-60
2022/11/27 05:26:42;;;;;;;7.68;7.18;;;;;;;;;;4990355;28;20471;-60
2022/11/27 05:29:09;;;;;;;8.23;7.47;;;;;;;;;;4991024;28;20034;-60
2022/11/27 05:31:35;;;;;;;7.35;6.75;;;;;;;;;;4991892;28;20192;-60
2022/11/27 05:34:00;;;;;;;7.50;6.90;;;;;;;;;;4989883;28;20080;-60
2022/11/27 05:36:27;;;;;;;6.95;6.45;;;;;;;;;;4990944;28;20030;-60
2022/11/27 05:38:52;;;;;;;6.80;6.30;;;;;;;;;;4990985;28;20038;-60
2022/11/27 05:41:17;;;;;;;6.50;6.07;;;;;;;;;;4993425;28;20199;-60
2022/11/27 05:43:43;;;;;;;7.60;6.97;;;;;;;;;;4993929;28;20186;-60
2022/11/27 05:46:11;;;;;;;8.38;7.65;;;;;;;;;;4990678;28;20193;-60
2022/11/27 05:48:37;;;;;;;7.65;7.13;;;;;;;;;;4991968;28;20105;-60
2022/11/27 05:51:03;;;;;;;7.63;7.10;;;;;;;;;;4990857;28;20408;-60
2022/11/27 05:53:29;;;;;;;7.43;6.90;;;;;;;;;;4991480;28;20038;-60
2022/11/27 05:55:59;;;;;;;7.47;6.97;;;;;;;;;;4991457;28;20091;-60
2022/11/27 05:58:25;;;;;;;7.55;7.00;;;;;;;;;;4992893;28;20042;-59
2022/11/27 06:00:50;;;;;;;7.85;7.35;;;;;;;;;;4988474;28;20541;-60
2022/11/27 06:03:15;;;;;;;8.35;7.75;;;;;;;;;;4988607;28;20030;-60
2022/11/27 06:05:41;;;;;;;8.48;7.65;;;;;;;;;;4990867;28;20033;-60
2022/11/27 06:08:06;;;;;;;7.85;7.25;;;;;;;;;;4994406;28;20038;-60
2022/11/27 06:10:31;;;;;;;8.70;8.00;;;;;;;;;;4988880;28;20118;-60
2022/11/27 06:12:57;;;;;;;7.47;6.90;;;;;;;;;;4993978;28;20162;-60
2022/11/27 06:15:22;;;;;;;7.90;7.22;;;;;;;;;;4994457;28;20101;-60
2022/11/27 06:17:48;;;;;;;7.57;6.97;;;;;;;;;;4996591;28;20034;-60
2022/11/27 06:20:14;;;;;;;7.57;6.97;;;;;;;;;;4988963;28;20365;-60
2022/11/27 06:22:39;;;;;;;13.10;11.13;;;;;;;;;;4991080;28;20257;-60
2022/11/27 06:25:05;;;;;;;9.82;9.07;;;;;;;;;;4993476;28;20048;-60
2022/11/27 06:27:34;;;;;;;9.30;8.25;;;;;;;;;;4989369;28;20034;-60
2022/11/27 06:30:00;;;;;;;7.68;7.07;;;;;;;;;;4991368;28;20054;-59
2022/11/27 06:32:26;;;;;;;7.05;6.55;;;;;;;;;;4992153;28;20535;-60
2022/11/27 06:34:51;;;;;;;7.70;7.10;;;;;;;;;;4992805;28;20113;-60
2022/11/27 06:37:17;;;;;;;6.68;6.18;;;;;;;;;;4991315;28;20041;-59
2022/11/27 06:39:42;;;;;;;7.18;6.57;;;;;;;;;;4995975;28;20300;-59
2022/11/27 06:42:07;;;;;;;7.50;6.90;;;;;;;;;;4991102;28;20030;-59
2022/11/27 06:44:33;;;;;;;7.60;7.03;;;;;;;;;;4988880;28;20445;-59
2022/11/27 06:46:58;;;;;;;7.95;7.35;;;;;;;;;;4990820;28;20036;-60
2022/11/27 06:49:23;;;;;;;7.47;6.88;;;;;;;;;;4993907;28;20061;-59
2022/11/27 06:51:49;;;;;;;8.82;8.15;;;;;;;;;;4991381;28;20046;-59
2022/11/27 06:54:15;;;;;;;7.25;6.65;;;;;;;;;;4995972;28;20471;-59
2022/11/27 06:56:40;;;;;;;7.30;6.80;;;;;;;;;;4996502;28;20121;-59
2022/11/27 06:59:06;;;;;;;7.97;7.38;;;;;;;;;;4993048;28;20453;-60
2022/11/27 07:01:31;;;;;;;6.40;5.95;;;;;;;;;;4991061;28;20066;-60
2022/11/27 07:03:57;;;;;;;7.53;6.82;;;;;;;;;;4995481;28;20122;-60
2022/11/27 07:06:24;;;;;;;7.65;7.13;;;;;;;;;;4996164;28;20491;-60
2022/11/27 07:08:51;;;;;;;8.52;7.72;;;;;;;;;;4991392;28;20114;-60
2022/11/27 07:11:23;;;;;;;7.53;6.93;;;;;;;;;;4993282;28;20237;-60
2022/11/27 07:13:49;;;;;;;7.95;7.35;;;;;;;;;;4991637;28;20400;-60
2022/11/27 07:16:16;;;;;;;7.45;6.93;;;;;;;;;;4994896;28;20049;-60
2022/11/27 07:18:44;;;;;;;8.95;8.20;;;;;;;;;;4994930;28;20042;-60
2022/11/27 07:21:09;;;;;;;7.18;6.68;;;;;;;;;;4992100;28;20078;-60
2022/11/27 07:23:35;;;;;;;8.00;7.40;;;;;;;;;;4995492;28;20078;-60
2022/11/27 07:26:06;;;;;;;8.13;7.45;;;;;;;;;;4989537;28;20025;-60
2022/11/27 07:28:32;;;;;;;7.18;6.68;;;;;;;;;;4993780;28;20033;-60
2022/11/27 07:30:58;;;;;;;8.05;7.25;;;;;;;;;;4990125;28;20101;-60
2022/11/27 07:33:24;;;;;;;11.82;9.60;;;;;;;;;;4993839;28;20157;-60
2022/11/27 07:35:57;;;;;;;7.85;7.32;;;;;;;;;;4994926;28;20026;-60
2022/11/27 07:38:22;;;;;;;8.73;8.05;;;;;;;;;;4990144;28;20131;-60
2022/11/27 07:40:48;;;;;;;8.25;7.55;;;;;;;;;;4992145;28;20457;-60
2022/11/27 07:43:13;;;;;;;7.90;7.18;;;;;;;;;;4991740;28;20100;-60
2022/11/27 07:45:38;;;;;;;10.68;7.88;;;;;;;;;;4989350;28;20034;-60
2022/11/27 07:48:04;;;;;;;8.10;7.50;;;;;;;;;;4994517;28;20114;-61
2022/11/27 07:50:29;;;;;;;8.27;7.68;;;;;;;;;;4991815;28;20034;-60
2022/11/27 07:52:55;;;;;;;8.38;7.78;;;;;;;;;;4993548;28;20181;-61
2022/11/27 07:55:20;;;;;;;9.38;8.65;;;;;;;;;;4996062;28;20330;-60
2022/11/27 07:57:46;;;;;;;8.85;8.07;;;;;;;;;;4992043;28;20038;-61
2022/11/27 08:00:11;;;;;;;8.48;7.88;;;;;;;;;;4994657;28;20088;-60
2022/11/27 08:02:37;;;;;;;8.45;7.85;;;;;;;;;;4991923;28;20427;-60
2022/11/27 08:05:02;;;;;;;8.27;7.68;;;;;;;;;;4994761;28;20116;-60
2022/11/27 08:07:29;;;;;;;8.57;7.93;;;;;;;;;;4994785;28;20030;-60
2022/11/27 08:09:57;;;;;;;9.18;8.48;;;;;;;;;;4991864;28;20441;-60
2022/11/27 08:12:23;;;;;;;8.82;8.23;;;;;;;;;;4993543;28;20152;-60
2022/11/27 08:14:49;;;;;;;7.65;7.15;;;;;;;;;;4992432;28;20023;-60
2022/11/27 08:17:14;;;;;;;9.07;8.27;;;;;;;;;;4992658;28;20034;-60
2022/11/27 08:19:40;;;;;;;7.35;6.85;;;;;;;;;;4993738;28;20045;-60
2022/11/27 08:22:12;;;;;;;7.47;6.97;;;;;;;;;;4999166;28;20105;-60
2022/11/27 08:24:38;;;;;;;8.00;7.40;;;;;;;;;;5000521;28;20034;-60
2022/11/27 08:27:03;;;;;;;7.90;7.35;;;;;;;;;;4993116;28;20304;-60
2022/11/27 08:29:29;;;;;;;9.15;8.45;;;;;;;;;;4990700;28;20037;-60
2022/11/27 08:31:54;;;;;;;7.05;6.55;;;;;;;;;;4990574;28;20440;-60
2022/11/27 08:34:20;;;;;;;10.82;7.75;;;;;;;;;;4993977;28;20426;-60
2022/11/27 08:36:45;;;;;;;8.05;7.25;;;;;;;;;;4990180;28;20026;-60
2022/11/27 08:39:11;;;;;;;9.43;8.75;;;;;;;;;;4993833;28;20431;-61
2022/11/27 08:41:36;;;;;;;8.65;8.00;;;;;;;;;;4990098;28;20034;-60
2022/11/27 08:44:02;;;;;;;10.25;9.45;;;;;;;;;;4992503;28;20030;-60
2022/11/27 08:46:27;;;;;;;10.02;8.95;;;;;;;;;;4992705;28;20057;-60
2022/11/27 08:48:53;;;;;;;9.07;8.48;;;;;;;;;;4992283;28;20048;-60
2022/11/27 08:51:18;;;;;;;10.80;10.00;;;;;;;;;;4989960;28;20424;-60
2022/11/27 08:53:44;;;;;;;10.70;9.80;;;;;;;;;;4990742;28;20042;-60
2022/11/27 08:56:17;;;;;;;10.57;9.80;;;;;;;;;;4991253;28;20030;-60
2022/11/27 08:58:43;;;;;;;10.30;9.38;;;;;;;;;;4992283;28;20274;-60
2022/11/27 09:01:29;;;;;;;9.05;8.32;;;;;;;;;;4992025;28;20088;-60
2022/11/27 09:03:55;;;;;;;11.27;10.30;;;;;;;;;;4991264;28;20070;-60
2022/11/27 09:06:23;;;;;;;9.63;8.93;;;;;;;;;;4995001;28;20100;-61
2022/11/27 09:08:49;;;;;;;9.75;8.95;;;;;;;;;;4987364;28;20376;-60
2022/11/27 09:11:18;;;;;;;9.27;8.57;;;;;;;;;;4989355;28;20049;-60
2022/11/27 09:13:43;;;;;;;8.52;7.93;;;;;;;;;;4991146;28;20291;-60
2022/11/27 09:16:12;;;;;;;8.35;7.75;;;;;;;;;;4992545;28;20073;-60
2022/11/27 09:18:37;;;;;;;10.02;9.02;;;;;;;;;;4989998;28;20049;-61
2022/11/27 09:21:06;;;;;;;8.73;8.13;;;;;;;;;;4990019;28;20372;-60
2022/11/27 09:23:32;;;;;;;9.68;8.98;;;;;;;;;;4994424;28;20026;-60
2022/11/27 09:25:59;;;;;;;10.48;9.77;;;;;;;;;;4993703;28;20092;-60
2022/11/27 09:28:24;;;;;;;10.27;9.50;;;;;;;;;;4991098;28;20185;-60
2022/11/27 09:30:57;;;;;;;9.43;8.80;;;;;;;;;;4990383;28;20414;-60
2022/11/27 09:33:24;;;;;;;10.60;9.70;;;;;;;;;;4991341;28;20156;-60
2022/11/27 09:35:49;;;;;;;9.80;9.10;;;;;;;;;;4990424;28;20037;-60
2022/11/27 09:38:15;;;;;;;10.32;9.60;;;;;;;;;;4992966;28;20045;-60
2022/11/27 09:40:54;;;;;;;10.32;9.38;;;;;;;;;;4990643;28;20026;-60
2022/11/27 09:43:29;;;;;;;11.05;10.13;;;;;;;;;;4991331;28;20496;-61
2022/11/27 09:46:00;;;;;;;9.45;8.80;;;;;;;;;;4990859;28;20030;-60
2022/11/27 09:48:38;;;;;;;10.35;9.65;;;;;;;;;;4987872;28;20109;-61
2022/11/27 09:51:22;;;;;;;10.73;9.73;;;;;;;;;;4992599;28;20025;-60
2022/11/27 09:54:01;;;;;;;10.50;9.80;;;;;;;;;;4990960;28;20030;-60
2022/11/27 09:56:28;;;;;;;10.60;9.80;;;;;;;;;;4989442;28;20036;-61
2022/11/27 09:58:58;;;;;;;10.88;9.98;;;;;;;;;;4990630;28;20136;-60
2022/11/27 10:01:27;;;;;;;11.00;10.15;;;;;;;;;;4990902;28;20050;-60
2022/11/27 10:03:53;;;;;;;11.13;10.32;;;;;;;;;;4991952;28;20061;-60
2022/11/27 10:06:37;;;;;;;11.20;10.40;;;;;;;;;;4990931;28;20355;-61
2022/11/27 10:09:03;;;;;;;10.57;9.75;;;;;;;;;;4991195;28;20465;-60
2022/11/27 10:11:41;;;;;;;10.45;9.75;;;;;;;;;;4989584;28;20113;-60
2022/11/27 10:14:38;;;;;;;10.50;9.80;;;;;;;;;;4991196;28;20034;-60
2022/11/27 10:17:15;;;;;;;9.35;8.75;;;;;;;;;;4989945;28;20023;-60
2022/11/27 10:19:47;;;;;;;9.88;9.18;;;;;;;;;;4991856;28;20057;-60
2022/11/27 10:22:26;;;;;;;9.85;9.25;;;;;;;;;;4989536;28;20034;-60
2022/11/27 10:25:15;;;;;;;9.68;9.07;;;;;;;;;;4993204;28;20034;-59
2022/11/27 10:27:51;;;;;;;8.98;8.38;;;;;;;;;;4988410;28;20041;-59
2022/11/27 10:30:19;;;;;;;10.15;9.45;;;;;;;;;;4992451;28;20037;-59
2022/11/27 10:32:47;;;;;;;10.30;9.50;;;;;;;;;;4992131;28;20038;-59
2022/11/27 10:35:19;;;;;;;9.77;9.13;;;;;;;;;;4990581;28;20034;-59
2022/11/27 10:38:09;;;;;;;10.68;9.98;;;;;;;;;;4991924;28;20709;-59
2022/11/27 10:40:44;;;;;;;10.52;9.73;;;;;;;;;;4990020;28;20044;-59
2022/11/27 10:43:22;;;;;;;9.57;8.93;;;;;;;;;;4990168;28;20117;-59
2022/11/27 10:46:08;;;;;;;10.43;9.63;;;;;;;;;;4990726;28;20371;-59
2022/11/27 10:48:34;;;;;;;22.33;10.73;;;;;;;;;;4993576;28;20120;-59
2022/11/27 10:50:59;;;;;;;12.52;11.73;;;;;;;;;;4990045;28;20091;-59
2022/11/27 10:53:31;;;;;;;11.77;10.95;;;;;;;;;;4990593;28;20216;-59
2022/11/27 10:56:14;;;;;;;11.70;10.93;;;;;;;;;;4990861;28;20511;-59
2022/11/27 10:58:56;;;;;;;11.85;11.05;;;;;;;;;;4992150;28;20066;-59
2022/11/27 11:01:23;;;;;;;11.60;10.85;;;;;;;;;;4990105;28;20037;-59
2022/11/27 11:03:49;;;;;;;12.15;11.25;;;;;;;;;;4994948;28;20042;-59
2022/11/27 11:06:23;;;;;;;11.80;11.07;;;;;;;;;;4989497;28;20053;-59
2022/11/27 11:09:24;;;;;;;10.25;9.55;;;;;;;;;;4991388;28;20048;-59
2022/11/27 11:11:50;;;;;;;10.65;9.95;;;;;;;;;;4972940;28;20045;-59
2022/11/27 11:14:17;;;;;;;11.70;10.90;;;;;;;;;;4992185;28;20041;-59
2022/11/27 11:16:43;;;;;;;12.27;11.48;;;;;;;;;;4992650;28;20452;-59
2022/11/27 11:19:21;;;;;;;11.05;10.25;;;;;;;;;;4991433;28;20033;-59
2022/11/27 11:21:46;;;;;;;11.40;10.50;;;;;;;;;;4989908;28;20046;-62
2022/11/27 11:24:34;;;;;;;10.27;9.57;;;;;;;;;;4992842;28;20045;-62
2022/11/27 11:27:13;;;;;;;10.55;9.85;;;;;;;;;;4993915;28;20038;-61
2022/11/27 11:29:43;;;;;;;11.93;11.00;;;;;;;;;;4994441;28;20136;-59
2022/11/27 11:32:13;;;;;;;10.13;9.45;;;;;;;;;;4990961;28;20034;-60
2022/11/27 11:34:51;;;;;;;10.63;9.93;;;;;;;;;;4992123;28;20065;-61
2022/11/27 11:37:24;;;;;;;10.98;10.27;;;;;;;;;;4997201;28;20121;-62
2022/11/27 11:39:59;;;;;;;10.27;9.57;;;;;;;;;;4995638;28;20034;-62
2022/11/27 11:42:27;;;;;;;11.65;10.77;;;;;;;;;;4996427;28;20034;-62
2022/11/27 11:45:01;;;;;;;10.65;9.95;;;;;;;;;;4995931;28;20053;-62
2022/11/27 11:47:27;;;;;;;10.45;9.75;;;;;;;;;;4994258;28;20046;-61
2022/11/27 11:49:53;;;;;;;9.77;9.07;;;;;;;;;;4993682;28;20140;-60
2022/11/27 11:52:31;;;;;;;10.63;9.93;;;;;;;;;;4993806;28;20108;-60
2022/11/27 11:55:00;;;;;;;8.52;7.93;;;;;;;;;;4995674;28;20116;-60
2022/11/27 11:57:50;;;;;;;10.02;9.27;;;;;;;;;;4994072;28;20042;-59
2022/11/27 12:00:18;;;;;;;9.25;8.57;;;;;;;;;;4993564;28;20036;-60
2022/11/27 12:03:03;;;;;;;9.45;8.75;;;;;;;;;;4993297;28;20030;-60
2022/11/27 12:05:56;;;;;;;9.27;8.57;;;;;;;;;;4995450;28;20034;-60
2022/11/27 12:08:47;;;;;;;9.10;8.30;;;;;;;;;;4994252;28;20105;-61
2022/11/27 12:11:20;;;;;;;9.48;8.70;;;;;;;;;;4993527;28;20031;-61
2022/11/27 12:13:51;;;;;;;9.23;8.40;;;;;;;;;;4992568;28;20395;-61
2022/11/27 12:16:38;;;;;;;8.73;8.13;;;;;;;;;;4993195;28;20134;-61
2022/11/27 12:19:28;;;;;;;9.25;8.55;;;;;;;;;;4995320;28;20029;-60
2022/11/27 12:22:18;;;;;;;9.20;8.60;;;;;;;;;;4993406;28;20094;-61
2022/11/27 12:25:02;;;;;;;9.13;8.43;;;;;;;;;;4992974;28;20041;-61
2022/11/27 12:28:02;;;;;;;7.97;7.38;;;;;;;;;;4997790;28;20072;-61
2022/11/27 12:30:39;;;;;;;7.50;7.00;;;;;;;;;;4994044;28;20498;-59
2022/11/27 12:33:20;;;;;;;8.80;8.20;;;;;;;;;;4993590;28;20542;-59
2022/11/27 12:35:55;;;;;;;8.57;7.97;;;;;;;;;;4997836;28;20034;-59
2022/11/27 12:38:46;;;;;;;8.60;8.00;;;;;;;;;;4991994;28;20042;-59
2022/11/27 12:41:20;;;;;;;8.43;7.83;;;;;;;;;;4990843;28;20341;-60
2022/11/27 12:43:51;;;;;;;8.55;7.85;;;;;;;;;;4994386;28;20064;-60
2022/11/27 12:46:22;;;;;;;10.63;9.57;;;;;;;;;;4993356;28;20464;-60
2022/11/27 12:48:57;;;;;;;8.85;8.25;;;;;;;;;;4992507;28;20039;-60
2022/11/27 12:51:28;;;;;;;9.07;8.48;;;;;;;;;;4994456;28;20486;-60
2022/11/27 12:54:08;;;;;;;7.95;7.45;;;;;;;;;;4991061;28;20499;-60
2022/11/27 12:56:49;;;;;;;9.25;8.55;;;;;;;;;;4995943;28;20373;-59
2022/11/27 12:59:24;;;;;;;9.30;8.65;;;;;;;;;;4991241;28;20431;-60
2022/11/27 13:02:23;;;;;;;8.68;8.07;;;;;;;;;;4990492;28;20464;-59
2022/11/27 13:05:13;;;;;;;8.38;7.78;;;;;;;;;;4991845;28;20033;-60
2022/11/27 13:07:53;;;;;;;8.68;8.07;;;;;;;;;;4991864;28;20094;-60
2022/11/27 13:10:55;;;;;;;8.45;7.75;;;;;;;;;;4991866;28;20040;-60
2022/11/27 13:13:39;;;;;;;7.75;7.25;;;;;;;;;;4991955;28;20061;-59
2022/11/27 13:16:25;;;;;;;8.75;7.93;;;;;;;;;;4992285;28;20026;-60
2022/11/27 13:19:14;;;;;;;9.70;8.70;;;;;;;;;;4989195;28;20054;-59
2022/11/27 13:21:41;;;;;;;8.88;8.07;;;;;;;;;;4990496;28;20325;-59
2022/11/27 13:24:11;;;;;;;8.93;8.32;;;;;;;;;;4991190;28;20132;-59
2022/11/27 13:26:51;;;;;;;8.80;8.20;;;;;;;;;;4992657;28;20026;-59
2022/11/27 13:29:49;;;;;;;8.40;7.78;;;;;;;;;;4991890;28;20046;-59
2022/11/27 13:32:30;;;;;;;8.55;7.95;;;;;;;;;;4988062;28;20649;-59
2022/11/27 13:34:59;;;;;;;8.65;8.05;;;;;;;;;;4993619;28;20046;-60
2022/11/27 13:37:34;;;;;;;7.65;7.13;;;;;;;;;;4993994;28;20173;-59
2022/11/27 13:40:02;;;;;;;7.55;7.05;;;;;;;;;;4994554;28;20045;-59
2022/11/27 13:42:29;;;;;;;7.35;6.85;;;;;;;;;;4991900;28;20030;-59
2022/11/27 13:44:57;;;;;;;8.13;7.53;;;;;;;;;;4996385;28;20096;-59
2022/11/27 13:47:25;;;;;;;9.38;8.68;;;;;;;;;;4991977;28;20034;-59
2022/11/27 13:50:00;;;;;;;8.32;7.72;;;;;;;;;;4991465;28;20048;-59
2022/11/27 13:52:25;;;;;;;9.23;8.48;;;;;;;;;;4991541;28;20034;-59
2022/11/27 13:55:04;;;;;;;7.70;7.20;;;;;;;;;;4993812;28;20112;-59
2022/11/27 13:57:30;;;;;;;9.07;8.48;;;;;;;;;;4994659;28;20066;-59
2022/11/27 14:00:11;;;;;;;8.05;7.45;;;;;;;;;;4993244;28;21246;-59
2022/11/27 14:02:44;;;;;;;10.60;9.73;;;;;;;;;;4992260;28;20034;-59
2022/11/27 14:05:12;;;;;;;9.48;8.80;;;;;;;;;;4994144;28;20371;-59
2022/11/27 14:07:46;;;;;;;9.70;8.75;;;;;;;;;;4994986;28;20045;-59
2022/11/27 14:10:18;;;;;;;10.02;9.20;;;;;;;;;;4993698;28;20143;-61
2022/11/27 14:13:01;;;;;;;10.18;9.35;;;;;;;;;;4994442;28;20342;-61
2022/11/27 14:15:28;;;;;;;9.73;8.93;;;;;;;;;;4992931;28;20034;-59
2022/11/27 14:18:08;;;;;;;10.98;10.10;;;;;;;;;;4992089;28;20122;-59
2022/11/27 14:20:43;;;;;;;10.40;9.60;;;;;;;;;;4992267;28;20034;-59
2022/11/27 14:23:09;;;;;;;9.85;9.05;;;;;;;;;;4994603;28;20045;-59
2022/11/27 14:25:35;;;;;;;10.73;9.48;;;;;;;;;;4993630;28;20030;-59
2022/11/27 14:28:20;;;;;;;10.40;9.43;;;;;;;;;;4992584;28;20048;-59
2022/11/27 14:30:49;;;;;;;9.38;8.77;;;;;;;;;;4991279;28;20077;-58
2022/11/27 14:33:19;;;;;;;10.45;9.75;;;;;;;;;;4990783;28;20029;-58
2022/11/27 14:35:55;;;;;;;10.80;10.05;;;;;;;;;;4991568;28;20069;-58
2022/11/27 14:38:21;;;;;;;11.30;10.40;;;;;;;;;;4989949;28;20050;-58
2022/11/27 14:40:48;;;;;;;14.70;13.48;;;;;;;;;;4993043;28;20033;-58
2022/11/27 14:43:16;;;;;;;14.77;13.48;;;;;;;;;;4989999;28;20655;-57
2022/11/27 14:45:45;;;;;;;13.50;12.52;;;;;;;;;;4990959;28;20512;-61
2022/11/27 14:48:25;;;;;;;11.07;10.27;;;;;;;;;;4992090;28;20040;-61
2022/11/27 14:50:52;;;;;;;11.05;10.25;;;;;;;;;;4989475;28;20034;-60
2022/11/27 14:53:26;;;;;;;15.75;14.27;;;;;;;;;;4992740;28;20037;-60
2022/11/27 14:55:55;;;;;;;17.08;15.57;;;;;;;;;;4996803;28;20087;-61
2022/11/27 14:58:26;;;;;;;12.38;11.48;;;;;;;;;;4989478;28;20488;-61
2022/11/27 15:00:59;;;;;;;37.80;22.60;;;;;;;;;;4989169;28;20173;-62